Time;durP1;ratioP1;P1;durP2;ratioP2;P2;SDS_P1;SDS_P2;PMS_P1;PMS_P2;Temp;Humidity;BMP_temperature;BMP_pressure;BME280_temperature;BME280_humidity;BME280_pressure;Samples;Min_cycle;Max_cycle;Signal;HPM_P1;HPM_P2
2024/03/11 00:02:30;;;;;;;6.33;6.13;;;9.00;37.10;;;;;;4936973;28;20430;-83
2024/03/11 00:05:27;;;;;;;8.03;7.73;;;9.00;36.70;;;;;;4929244;28;20811;-82
2024/03/11 00:08:17;;;;;;;8.20;7.57;;;9.10;37.00;;;;;;4993910;28;20487;-82
2024/03/11 00:10:44;;;;;;;7.07;6.77;;;9.10;36.10;;;;;;4993132;28;20469;-82
2024/03/11 00:13:54;;;;;;;7.07;6.77;;;9.30;36.30;;;;;;4985297;28;20706;-83
2024/03/11 00:16:35;;;;;;;7.23;6.93;;;9.20;35.00;;;;;;4994568;28;20429;-83
2024/03/11 00:19:54;;;;;;;7.47;7.27;;;9.20;36.00;;;;;;4999624;28;20429;-83
2024/03/11 00:22:37;;;;;;;7.30;7.00;;;9.40;36.20;;;;;;4949736;28;20448;-83
2024/03/11 00:25:17;;;;;;;6.70;6.40;;;9.30;35.90;;;;;;4994479;28;20902;-82
2024/03/11 00:28:08;;;;;;;6.97;6.53;;;9.30;36.00;;;;;;4983964;28;20582;-82
2024/03/11 00:30:39;;;;;;;7.30;7.00;;;9.20;36.70;;;;;;4979264;28;20430;-83
2024/03/11 00:33:28;;;;;;;6.50;6.30;;;9.20;37.00;;;;;;4992721;28;20437;-82
2024/03/11 00:35:54;;;;;;;6.80;6.60;;;9.10;36.50;;;;;;4985596;28;20426;-83
2024/03/11 00:38:19;;;;;;;6.87;6.67;;;9.20;36.50;;;;;;4992914;28;20422;-83
2024/03/11 00:40:45;;;;;;;6.47;6.27;;;9.10;36.80;;;;;;4986535;28;20473;-81
2024/03/11 00:43:11;;;;;;;6.27;6.07;;;9.10;36.30;;;;;;4984500;28;20279;-82
2024/03/11 00:45:37;;;;;;;6.93;6.70;;;9.00;36.70;;;;;;4980715;28;20228;-82
2024/03/11 00:48:06;;;;;;;6.47;6.27;;;9.00;37.10;;;;;;5001297;28;20602;-83
2024/03/11 00:50:33;;;;;;;7.00;6.70;;;9.10;36.60;;;;;;4993063;28;20413;-83
2024/03/11 00:53:00;;;;;;;7.60;7.30;;;9.10;36.20;;;;;;4999450;28;20433;-83
2024/03/11 00:55:25;;;;;;;6.90;6.60;;;9.10;36.30;;;;;;4989343;28;20418;-83
2024/03/11 00:57:52;;;;;;;7.60;7.30;;;9.10;36.30;;;;;;4988897;28;20425;-83
2024/03/11 01:00:22;;;;;;;7.23;7.03;;;9.10;36.40;;;;;;4983295;28;20567;-82
2024/03/11 01:02:49;;;;;;;6.90;6.70;;;9.10;36.80;;;;;;4991121;28;20445;-82
2024/03/11 01:05:15;;;;;;;6.90;6.70;;;9.10;37.20;;;;;;4983480;28;20465;-82
2024/03/11 01:07:45;;;;;;;6.70;6.50;;;9.10;36.80;;;;;;4991212;28;20503;-82
2024/03/11 01:10:11;;;;;;;7.00;6.80;;;9.10;37.00;;;;;;5000162;28;20437;-83
2024/03/11 01:12:41;;;;;;;7.00;6.70;;;9.10;36.40;;;;;;4979487;28;20448;-83
2024/03/11 01:15:08;;;;;;;7.00;6.70;;;9.10;36.50;;;;;;4995298;28;20421;-82
2024/03/11 01:17:34;;;;;;;6.70;6.50;;;9.30;37.30;;;;;;5000307;28;21586;-82
2024/03/11 01:20:00;;;;;;;6.53;6.33;;;9.40;36.00;;;;;;5001771;28;20417;-83
2024/03/11 01:22:27;;;;;;;6.60;6.40;;;9.40;35.40;;;;;;4999695;28;20449;-82
2024/03/11 01:24:56;;;;;;;6.40;6.20;;;9.40;35.60;;;;;;4999255;28;20178;-82
2024/03/11 01:27:25;;;;;;;6.63;6.43;;;9.40;35.70;;;;;;4998000;28;20460;-83
2024/03/11 01:29:50;;;;;;;7.03;6.83;;;9.40;35.60;;;;;;4980645;28;20426;-82
2024/03/11 01:32:18;;;;;;;6.27;6.07;;;9.40;34.80;;;;;;4987243;28;20984;-82
2024/03/11 01:34:46;;;;;;;6.70;6.40;;;9.30;35.10;;;;;;4990562;28;20178;-81
2024/03/11 01:37:12;;;;;;;6.60;6.40;;;9.30;35.70;;;;;;4983452;28;20479;-83
2024/03/11 01:39:43;;;;;;;6.50;6.30;;;9.40;35.00;;;;;;4999921;28;20476;-83
2024/03/11 01:42:16;;;;;;;6.40;6.20;;;9.30;35.00;;;;;;4992613;28;20285;-82
2024/03/11 01:44:44;;;;;;;6.50;6.30;;;9.30;35.50;;;;;;4988120;28;20495;-82
2024/03/11 01:47:12;;;;;;;6.90;6.70;;;9.20;34.90;;;;;;4995644;28;20481;-83
2024/03/11 01:49:41;;;;;;;6.97;6.77;;;9.20;35.40;;;;;;4992502;28;20420;-82
2024/03/11 01:52:10;;;;;;;6.87;6.67;;;9.20;36.00;;;;;;4996669;28;20450;-82
2024/03/11 01:54:38;;;;;;;6.40;6.20;;;9.20;36.00;;;;;;4985576;28;20465;-82
2024/03/11 01:57:05;;;;;;;6.87;6.63;;;9.20;35.30;;;;;;4994507;28;20463;-82
2024/03/11 01:59:35;;;;;;;6.87;6.57;;;9.20;34.90;;;;;;4983559;28;20426;-83
2024/03/11 02:02:03;;;;;;;6.37;6.17;;;9.20;35.00;;;;;;4983507;28;20438;-82
2024/03/11 02:04:31;;;;;;;7.30;7.10;;;9.40;34.80;;;;;;4988539;28;20943;-82
2024/03/11 02:06:57;;;;;;;7.03;6.73;;;9.50;34.40;;;;;;4984608;28;20520;-82
2024/03/11 02:09:23;;;;;;;6.43;6.23;;;9.60;33.80;;;;;;4986713;28;20456;-82
2024/03/11 02:11:48;;;;;;;6.90;6.70;;;9.50;33.10;;;;;;4979664;28;20504;-82
2024/03/11 02:14:14;;;;;;;7.10;6.80;;;9.30;33.30;;;;;;4984725;28;20898;-82
2024/03/11 02:16:43;;;;;;;6.43;6.23;;;9.40;34.30;;;;;;4989896;28;20722;-82
2024/03/11 02:19:12;;;;;;;7.20;7.00;;;9.30;34.00;;;;;;4988045;28;20645;-84
2024/03/11 02:21:45;;;;;;;6.67;6.47;;;9.40;34.40;;;;;;4984906;28;20429;-83
2024/03/11 02:24:15;;;;;;;6.90;6.70;;;9.60;34.10;;;;;;4992031;28;20417;-83
2024/03/11 02:26:42;;;;;;;6.77;6.47;;;9.60;33.20;;;;;;4976800;28;20420;-84
2024/03/11 02:29:09;;;;;;;6.60;6.40;;;9.70;32.80;;;;;;4983220;28;20424;-83
2024/03/11 02:31:35;;;;;;;7.60;7.30;;;9.50;32.60;;;;;;4985059;28;20452;-83
2024/03/11 02:34:01;;;;;;;6.80;6.53;;;9.50;32.60;;;;;;4984383;28;20438;-83
2024/03/11 02:36:26;;;;;;;6.60;6.40;;;9.40;32.40;;;;;;4986854;28;20170;-83
2024/03/11 02:38:53;;;;;;;7.13;6.83;;;9.30;32.60;;;;;;4988988;28;20187;-82
2024/03/11 02:41:19;;;;;;;7.27;6.87;;;9.30;33.70;;;;;;4990203;28;20178;-83
2024/03/11 02:43:45;;;;;;;7.20;6.90;;;9.30;32.80;;;;;;4986063;28;20968;-83
2024/03/11 02:46:10;;;;;;;6.80;6.60;;;9.20;33.10;;;;;;4978443;28;20426;-83
2024/03/11 02:48:37;;;;;;;6.70;6.50;;;9.10;32.50;;;;;;4986387;28;20213;-83
2024/03/11 02:51:03;;;;;;;7.27;7.07;;;9.00;33.40;;;;;;4986379;28;20178;-83
2024/03/11 02:53:30;;;;;;;6.93;6.67;;;8.90;33.70;;;;;;4976846;28;20524;-83
2024/03/11 02:55:56;;;;;;;7.37;7.07;;;8.80;33.80;;;;;;4986677;28;20419;-84
2024/03/11 02:58:22;;;;;;;7.13;6.93;;;8.90;34.70;;;;;;4986230;28;20458;-84
2024/03/11 03:00:48;;;;;;;6.10;5.90;;;8.80;33.60;;;;;;4985754;28;20427;-83
2024/03/11 03:03:15;;;;;;;6.60;6.40;;;8.70;34.30;;;;;;4983479;28;21164;-83
2024/03/11 03:05:41;;;;;;;7.03;6.83;;;8.60;34.60;;;;;;4985767;28;20220;-83
2024/03/11 03:08:07;;;;;;;7.43;7.23;;;8.60;35.10;;;;;;4986544;28;20477;-83
2024/03/11 03:10:33;;;;;;;7.03;6.83;;;8.60;35.20;;;;;;4987376;28;20654;-83
2024/03/11 03:12:58;;;;;;;7.43;7.23;;;8.60;34.60;;;;;;4988440;28;20186;-83
2024/03/11 03:15:24;;;;;;;6.70;6.50;;;8.60;35.80;;;;;;4987192;28;20471;-83
2024/03/11 03:17:50;;;;;;;7.03;6.83;;;8.70;35.10;;;;;;4985453;28;20175;-84
2024/03/11 03:20:18;;;;;;;6.87;6.67;;;8.70;34.40;;;;;;4985595;28;20174;-83
2024/03/11 03:22:44;;;;;;;6.60;6.40;;;8.60;34.80;;;;;;4983841;28;20206;-83
2024/03/11 03:25:09;;;;;;;6.40;6.20;;;8.60;34.50;;;;;;4985465;28;20426;-83
2024/03/11 03:27:35;;;;;;;6.70;6.50;;;8.60;34.80;;;;;;4987430;28;20469;-83
2024/03/11 03:30:01;;;;;;;7.00;6.80;;;8.40;35.20;;;;;;4988042;28;20171;-83
2024/03/11 03:32:27;;;;;;;7.07;6.87;;;8.40;36.00;;;;;;4987144;28;20197;-83
2024/03/11 03:34:53;;;;;;;7.47;7.17;;;8.30;35.90;;;;;;4987913;28;20175;-83
2024/03/11 03:37:18;;;;;;;7.50;7.20;;;8.40;36.00;;;;;;4989889;28;21049;-83
2024/03/11 03:39:47;;;;;;;6.60;6.40;;;8.40;35.70;;;;;;4991611;28;20257;-84
2024/03/11 03:42:13;;;;;;;7.00;6.80;;;8.40;35.50;;;;;;4991197;28;20251;-83
2024/03/11 03:44:38;;;;;;;6.93;6.63;;;8.30;35.20;;;;;;4990622;28;20480;-83
2024/03/11 03:47:04;;;;;;;7.17;6.97;;;8.30;35.60;;;;;;4985614;28;20220;-83
2024/03/11 03:49:30;;;;;;;7.93;7.73;;;8.30;35.20;;;;;;4990029;28;20170;-83
2024/03/11 03:51:56;;;;;;;7.37;7.17;;;8.30;35.40;;;;;;4988393;28;20425;-84
2024/03/11 03:54:24;;;;;;;6.90;6.70;;;8.40;35.40;;;;;;4990475;28;21099;-83
2024/03/11 03:56:49;;;;;;;7.10;6.90;;;8.30;34.90;;;;;;4989073;28;20194;-83
2024/03/11 03:59:16;;;;;;;7.13;6.93;;;8.30;35.90;;;;;;4988801;28;20421;-83
2024/03/11 04:01:42;;;;;;;7.87;7.57;;;8.30;35.00;;;;;;4989335;28;20218;-83
2024/03/11 04:04:08;;;;;;;7.27;7.07;;;8.30;35.60;;;;;;4987102;28;20425;-83
2024/03/11 04:06:33;;;;;;;7.00;6.70;;;8.30;35.30;;;;;;4998184;28;20421;-83
2024/03/11 04:09:01;;;;;;;7.50;7.30;;;8.20;35.10;;;;;;4992151;28;20202;-82
2024/03/11 04:11:27;;;;;;;7.13;6.93;;;8.10;35.00;;;;;;4985329;28;20187;-83
2024/03/11 04:13:52;;;;;;;7.53;7.33;;;8.10;35.70;;;;;;4994251;28;20443;-83
2024/03/11 04:16:19;;;;;;;7.10;6.83;;;8.10;34.70;;;;;;4996072;28;20269;-83
2024/03/11 04:18:44;;;;;;;7.23;6.97;;;8.30;34.90;;;;;;4998722;28;20182;-83
2024/03/11 04:21:11;;;;;;;7.63;7.33;;;8.30;34.30;;;;;;4989514;28;20425;-83
2024/03/11 04:23:38;;;;;;;7.43;7.23;;;8.30;33.70;;;;;;4990676;28;20202;-83
2024/03/11 04:26:04;;;;;;;7.13;6.90;;;8.40;33.90;;;;;;4993138;28;20440;-83
2024/03/11 04:28:29;;;;;;;7.20;7.00;;;8.40;33.70;;;;;;4991575;28;20465;-83
2024/03/11 04:30:55;;;;;;;7.33;7.13;;;8.50;33.60;;;;;;4993715;28;20214;-83
2024/03/11 04:33:24;;;;;;;7.57;7.37;;;8.50;32.90;;;;;;4991799;28;20217;-84
2024/03/11 04:35:50;;;;;;;7.70;7.40;;;8.70;32.60;;;;;;4988656;28;20195;-84
2024/03/11 04:38:23;;;;;;;7.60;7.40;;;8.60;32.00;;;;;;4979911;28;20430;-83
2024/03/11 04:40:48;;;;;;;7.37;7.17;;;8.60;33.10;;;;;;4990437;28;20181;-83
2024/03/11 04:43:14;;;;;;;8.20;8.00;;;8.60;32.70;;;;;;4989047;28;20433;-84
2024/03/11 04:45:40;;;;;;;8.33;8.03;;;8.50;32.50;;;;;;4980406;28;20265;-84
2024/03/11 04:48:07;;;;;;;8.07;7.77;;;8.60;32.40;;;;;;4987012;28;20222;-83
2024/03/11 04:50:34;;;;;;;8.37;8.10;;;8.60;32.10;;;;;;4986759;28;20175;-84
2024/03/11 04:53:04;;;;;;;7.03;6.83;;;8.50;32.10;;;;;;4986437;28;20763;-84
2024/03/11 04:55:31;;;;;;;7.17;6.97;;;8.70;32.80;;;;;;4986793;28;20460;-83
2024/03/11 04:57:58;;;;;;;7.53;7.30;;;8.90;31.60;;;;;;4988634;28;20418;-83
2024/03/11 05:00:28;;;;;;;7.80;7.50;;;8.70;31.40;;;;;;4982180;28;20488;-83
2024/03/11 05:02:59;;;;;;;7.67;7.37;;;8.60;31.30;;;;;;4989073;28;20451;-83
2024/03/11 05:05:25;;;;;;;7.40;7.10;;;8.50;31.60;;;;;;4996100;28;20571;-83
2024/03/11 05:07:51;;;;;;;8.47;8.17;;;8.30;31.70;;;;;;4987632;28;20457;-82
2024/03/11 05:10:17;;;;;;;7.87;7.67;;;8.30;32.80;;;;;;4988176;28;20507;-83
2024/03/11 05:12:43;;;;;;;7.63;7.33;;;8.20;33.20;;;;;;4992082;28;20444;-83
2024/03/11 05:15:09;;;;;;;7.97;7.67;;;8.00;33.90;;;;;;4984530;28;20425;-82
2024/03/11 05:17:39;;;;;;;7.77;7.47;;;7.90;33.90;;;;;;4985056;28;20429;-81
2024/03/11 05:20:12;;;;;;;7.77;7.33;;;7.80;33.90;;;;;;4987880;28;20890;-82
2024/03/11 05:22:41;;;;;;;9.00;8.60;;;7.80;34.30;;;;;;4993877;28;20459;-83
2024/03/11 05:25:19;;;;;;;7.67;7.37;;;7.80;33.70;;;;;;4987938;28;20433;-83
2024/03/11 05:27:50;;;;;;;8.33;8.03;;;7.90;33.50;;;;;;4985956;28;20505;-82
2024/03/11 05:30:17;;;;;;;8.67;8.37;;;7.90;34.20;;;;;;4986424;28;20417;-82
2024/03/11 05:32:43;;;;;;;8.50;8.20;;;8.10;33.60;;;;;;4985637;28;21163;-80
2024/03/11 05:35:09;;;;;;;7.50;7.20;;;8.20;33.40;;;;;;4996195;28;20417;-81
2024/03/11 05:37:35;;;;;;;7.10;6.80;;;8.30;32.70;;;;;;4992955;28;20460;-80
2024/03/11 05:40:47;;;;;;;6.90;6.60;;;8.40;31.10;;;;;;4987372;28;20834;-83
2024/03/11 05:43:36;;;;;;;7.80;7.40;;;8.40;31.10;;;;;;4970800;28;20210;-82
2024/03/11 05:46:11;;;;;;;6.90;6.70;;;8.50;31.20;;;;;;5000943;28;20973;-82
2024/03/11 06:02:39;;;;;;;6.63;6.43;;;9.60;28.20;;;;;;4956471;29;20430;-82
2024/03/11 06:27:36;;;;;;;7.07;6.80;;;8.40;30.30;;;;;;4910127;29;20482;-82
2024/03/11 06:30:26;;;;;;;8.17;7.87;;;8.30;31.10;;;;;;4930055;29;20487;-82
2024/03/11 06:32:59;;;;;;;8.30;7.80;;;8.10;31.40;;;;;;4945225;29;20463;-84
2024/03/11 06:46:10;;;;;;;8.17;7.80;;;7.80;32.40;;;;;;4914602;29;20447;-81
2024/03/11 06:49:04;;;;;;;8.40;8.10;;;7.70;33.40;;;;;;4953908;28;20481;-83
2024/03/11 06:51:59;;;;;;;8.67;8.27;;;7.80;33.40;;;;;;4993855;28;20418;-84
2024/03/11 06:54:55;;;;;;;8.30;8.00;;;7.80;33.20;;;;;;4997404;28;20516;-82
2024/03/11 07:01:18;;;;;;;8.00;7.80;;;7.90;32.20;;;;;;4922894;29;20436;-83
2024/03/11 07:04:45;;;;;;;8.67;8.27;;;7.80;31.80;;;;;;4890641;29;20433;-84
2024/03/11 07:15:37;;;;;;;8.40;8.10;;;8.00;30.80;;;;;;4923913;29;20416;-84
2024/03/11 07:19:31;;;;;;;7.50;7.20;;;8.10;30.90;;;;;;4903798;29;20408;-84
2024/03/11 07:25:25;;;;;;;7.40;7.10;;;8.20;30.50;;;;;;4934557;29;20488;-84
2024/03/11 07:28:58;;;;;;;6.93;6.63;;;8.20;29.80;;;;;;4934562;29;20472;-83
2024/03/11 07:32:06;;;;;;;7.90;7.50;;;8.30;29.90;;;;;;4997457;28;20453;-83
2024/03/11 07:35:04;;;;;;;7.93;7.63;;;8.30;29.90;;;;;;4963210;28;20473;-83
2024/03/11 07:41:12;;;;;;;7.50;7.20;;;8.50;29.90;;;;;;4975689;28;20497;-83
2024/03/11 07:44:22;;;;;;;7.87;7.67;;;8.60;29.20;;;;;;4985533;28;20438;-84
2024/03/11 07:50:27;;;;;;;7.83;7.63;;;8.90;28.30;;;;;;4999118;28;20447;-83
2024/03/11 07:56:59;;;;;;;8.10;7.80;;;9.10;27.80;;;;;;4950120;29;20634;-83
2024/03/11 08:03:14;;;;;;;7.50;7.20;;;8.90;28.30;;;;;;4899861;29;20515;-84
2024/03/11 08:05:43;;;;;;;7.47;7.27;;;8.90;28.80;;;;;;4971572;28;20452;-84
2024/03/11 08:08:08;;;;;;;7.60;7.20;;;8.80;28.80;;;;;;4999279;28;20528;-84
2024/03/11 08:10:36;;;;;;;7.90;7.63;;;8.90;29.00;;;;;;4991899;28;20472;-83
2024/03/11 08:13:02;;;;;;;7.53;7.33;;;8.90;28.50;;;;;;4987418;28;20206;-83
2024/03/11 08:15:30;;;;;;;7.97;7.67;;;9.10;28.40;;;;;;5001963;28;20505;-83
2024/03/11 08:17:56;;;;;;;7.53;7.33;;;9.20;28.10;;;;;;5002071;28;20223;-83
2024/03/11 08:20:36;;;;;;;7.60;7.20;;;9.30;28.50;;;;;;5001492;28;20417;-83
2024/03/11 08:23:03;;;;;;;7.30;7.07;;;9.50;27.00;;;;;;5002306;28;20206;-83
2024/03/11 08:25:31;;;;;;;7.33;7.13;;;9.60;26.70;;;;;;4986663;28;20430;-83
2024/03/11 08:27:57;;;;;;;8.30;8.00;;;9.70;26.70;;;;;;4993303;28;20993;-83
2024/03/11 08:30:27;;;;;;;8.00;7.80;;;9.80;25.90;;;;;;4987866;28;20453;-83
2024/03/11 08:32:54;;;;;;;7.83;7.53;;;9.90;25.90;;;;;;4997976;28;20460;-83
2024/03/11 08:35:23;;;;;;;8.47;7.97;;;10.00;25.20;;;;;;4990088;28;20426;-82
2024/03/11 08:37:49;;;;;;;7.53;7.33;;;10.10;25.00;;;;;;4998206;28;20436;-81
2024/03/11 08:40:19;;;;;;;8.00;7.80;;;10.20;24.30;;;;;;4994976;28;20442;-81
2024/03/11 08:42:56;;;;;;;8.40;8.10;;;10.20;24.20;;;;;;4992717;28;20471;-84
2024/03/11 08:45:47;;;;;;;8.30;8.00;;;10.30;24.30;;;;;;4994524;28;20976;-83
2024/03/11 08:48:26;;;;;;;6.90;6.63;;;10.40;23.90;;;;;;4992095;28;20483;-83
2024/03/11 08:50:55;;;;;;;6.57;6.33;;;10.50;23.60;;;;;;4987150;28;20448;-82
2024/03/11 08:53:23;;;;;;;7.17;6.97;;;10.50;24.00;;;;;;4983834;28;20814;-83
2024/03/11 08:55:50;;;;;;;8.00;7.60;;;10.50;23.60;;;;;;4982717;28;20809;-82
2024/03/11 08:59:10;;;;;;;7.53;7.23;;;10.60;23.60;;;;;;4976241;28;20432;-83
2024/03/11 09:02:01;;;;;;;7.23;6.93;;;10.70;23.80;;;;;;4989242;28;21170;-83
2024/03/11 09:08:35;;;;;;;8.37;8.07;;;10.90;23.00;;;;;;4989869;28;20552;-82
2024/03/11 09:11:08;;;;;;;7.50;7.20;;;11.00;23.30;;;;;;4985555;28;20516;-82
2024/03/11 09:13:35;;;;;;;8.07;7.73;;;11.10;22.80;;;;;;4979286;28;20450;-81
2024/03/11 09:16:01;;;;;;;8.30;8.00;;;11.30;23.00;;;;;;4986008;28;20433;-80
2024/03/11 09:18:27;;;;;;;7.90;7.60;;;11.40;21.80;;;;;;4992569;28;20425;-82
2024/03/11 09:21:05;;;;;;;7.93;7.53;;;11.50;21.20;;;;;;4988924;28;20872;-81
2024/03/11 09:24:03;;;;;;;7.70;7.20;;;11.50;21.30;;;;;;5059769;23;20950;-83
2024/03/11 09:31:44;;;;;;;8.33;8.03;;;11.60;20.40;;;;;;5088504;27;20815;-84
2024/03/11 09:34:11;;;;;;;7.87;7.67;;;11.70;20.30;;;;;;5033381;28;20431;-83
2024/03/11 09:36:38;;;;;;;7.57;7.37;;;11.90;20.10;;;;;;5024364;28;20445;-84
2024/03/11 09:39:11;;;;;;;8.30;8.00;;;11.90;19.70;;;;;;5070634;28;20420;-83
2024/03/11 09:41:49;;;;;;;7.13;6.93;;;12.10;19.60;;;;;;5080896;28;20480;-83
2024/03/11 09:44:20;;;;;;;7.23;7.03;;;12.30;19.30;;;;;;5050551;28;20424;-83
2024/03/11 09:46:50;;;;;;;6.47;6.27;;;12.50;18.70;;;;;;5046328;28;20898;-83
2024/03/11 09:49:19;;;;;;;6.50;6.20;;;12.60;17.90;;;;;;5056777;28;20436;-82
2024/03/11 09:51:48;;;;;;;6.30;6.10;;;12.70;17.70;;;;;;5064598;28;20807;-83
2024/03/11 09:54:44;;;;;;;5.93;5.73;;;12.70;17.30;;;;;;5080103;28;20438;-83
2024/03/11 09:57:13;;;;;;;6.43;6.07;;;12.70;17.50;;;;;;5015309;28;20412;-83
2024/03/11 09:59:50;;;;;;;6.70;6.50;;;12.80;17.40;;;;;;5048542;28;20430;-83
2024/03/11 10:02:48;;;;;;;6.13;5.90;;;12.90;16.70;;;;;;5017593;28;20791;-83
2024/03/11 10:05:10;;;;;;;6.60;6.40;;;12.90;16.90;;;;;;5066807;28;20866;-82
2024/03/11 10:07:38;;;;;;;5.90;5.70;;;12.80;16.50;;;;;;5062050;28;20458;-82
2024/03/11 10:10:26;;;;;;;;;;;;;;;;;;;;;
2024/03/11 10:12:53;;;;;;;6.40;6.10;;;12.80;16.80;;;;;;5111518;28;20514;-83
2024/03/11 10:15:48;;;;;;;;;;;;;;;;;;;;;
2024/03/11 10:22:31;;;;;;;7.27;6.97;;;13.30;15.90;;;;;;5021331;28;20926;-83
2024/03/11 10:25:09;;;;;;;6.47;6.17;;;13.00;15.50;;;;;;5016223;28;20424;-83
2024/03/11 10:27:59;;;;;;;6.20;6.00;;;12.90;16.40;;;;;;5021157;28;20424;-83
2024/03/11 10:30:36;;;;;;;6.60;6.40;;;12.80;16.50;;;;;;5049982;28;20474;-82
2024/03/11 10:33:39;;;;;;;6.33;6.03;;;12.90;16.80;;;;;;5039154;27;20481;-83
2024/03/11 10:37:05;;;;;;;;;;;;;;;;;;;;;
2024/03/11 10:40:26;;;;;;;7.07;6.87;;;12.90;16.20;;;;;;4996958;28;20412;-82
2024/03/11 10:47:30;;;;;;;6.37;6.17;;;13.50;16.00;;;;;;5022416;28;20500;-82
2024/03/11 10:50:06;;;;;;;6.80;6.60;;;13.70;14.60;;;;;;4973011;28;20634;-82
2024/03/11 10:53:03;;;;;;;6.73;6.53;;;13.60;15.30;;;;;;4999240;28;20785;-83
2024/03/11 10:56:05;;;;;;;;;;;;;;;;;;;;;
2024/03/11 11:01:53;;;;;;;6.33;6.07;;;14.00;13.40;;;;;;4992265;28;20438;-83
2024/03/11 11:04:22;;;;;;;5.87;5.67;;;14.20;12.20;;;;;;5101114;23;20873;-79
2024/03/11 11:06:51;;;;;;;5.37;5.07;;;14.20;11.50;;;;;;5059218;28;20454;-80
2024/03/11 11:09:19;;;;;;;5.47;5.37;;;14.10;11.30;;;;;;5051306;28;20416;-80
2024/03/11 11:11:49;;;;;;;5.70;5.50;;;14.10;11.60;;;;;;5041825;28;20506;-78
2024/03/11 11:14:18;;;;;;;5.13;5.03;;;14.10;12.20;;;;;;5053054;28;20465;-80
2024/03/11 11:16:45;;;;;;;5.90;5.70;;;14.20;12.20;;;;;;5087930;28;20514;-79
2024/03/11 11:19:22;;;;;;;5.73;5.53;;;14.10;11.90;;;;;;5068653;28;20464;-78
2024/03/11 11:22:00;;;;;;;5.13;4.93;;;14.00;12.00;;;;;;5052755;28;20475;-79
2024/03/11 11:24:32;;;;;;;6.40;6.07;;;14.10;11.60;;;;;;5038513;28;20450;-78
2024/03/11 11:26:59;;;;;;;5.70;5.50;;;14.10;12.30;;;;;;5092563;28;20439;-79
2024/03/11 11:29:27;;;;;;;6.87;6.47;;;14.20;12.80;;;;;;5093767;28;20477;-80
2024/03/11 11:32:00;;;;;;;6.60;6.40;;;14.20;12.10;;;;;;5052738;28;20437;-79
2024/03/11 11:34:49;;;;;;;6.27;5.97;;;14.10;12.30;;;;;;5078084;28;20483;-79
2024/03/11 11:37:22;;;;;;;6.50;6.30;;;13.90;12.20;;;;;;5052083;28;20430;-79
2024/03/11 11:39:50;;;;;;;5.60;5.40;;;13.80;12.70;;;;;;5045828;28;20528;-79
2024/03/11 11:42:40;;;;;;;6.00;5.80;;;13.70;13.10;;;;;;5058340;28;20446;-79
2024/03/11 11:45:11;;;;;;;5.40;5.30;;;13.70;13.00;;;;;;5076344;28;20459;-78
2024/03/11 11:47:37;;;;;;;6.07;5.87;;;13.70;12.80;;;;;;5069266;28;20435;-79
2024/03/11 11:50:26;;;;;;;7.03;6.73;;;13.70;13.30;;;;;;5060870;28;20459;-79
2024/03/11 11:53:02;;;;;;;6.70;6.40;;;13.90;13.00;;;;;;5063733;28;20460;-78
2024/03/11 11:55:32;;;;;;;5.60;5.40;;;14.00;13.10;;;;;;5040037;28;20450;-78
2024/03/11 11:58:10;;;;;;;5.43;5.23;;;14.10;12.70;;;;;;5059679;28;20442;-79
2024/03/11 12:00:40;;;;;;;6.70;6.30;;;14.20;12.60;;;;;;5041246;28;20926;-81
2024/03/11 12:03:27;;;;;;;5.57;5.37;;;14.30;12.10;;;;;;5057890;28;20474;-80
2024/03/11 12:06:09;;;;;;;5.63;5.43;;;14.20;9.90;;;;;;5072574;28;20449;-80
2024/03/11 12:08:34;;;;;;;5.83;5.63;;;14.00;10.10;;;;;;5082112;28;20443;-79
2024/03/11 12:11:12;;;;;;;5.97;5.77;;;14.10;10.40;;;;;;5042492;28;20471;-80
2024/03/11 12:13:44;;;;;;;5.90;5.70;;;14.20;10.20;;;;;;5048677;28;20204;-80
2024/03/11 12:16:11;;;;;;;8.80;8.07;;;14.20;10.30;;;;;;5043910;28;20428;-80
2024/03/11 12:18:42;;;;;;;6.30;6.10;;;14.20;10.60;;;;;;5061770;28;20445;-79
2024/03/11 12:21:11;;;;;;;5.87;5.67;;;14.10;10.80;;;;;;5093853;28;20434;-79
2024/03/11 12:23:38;;;;;;;5.60;5.40;;;14.20;10.80;;;;;;5058560;28;20520;-80
2024/03/11 12:26:06;;;;;;;5.37;5.20;;;14.20;9.70;;;;;;5051206;28;20439;-80
2024/03/11 12:28:32;;;;;;;5.37;5.27;;;14.10;9.10;;;;;;5044630;28;20438;-79
2024/03/11 12:31:00;;;;;;;5.33;5.20;;;14.10;10.00;;;;;;5075641;28;20565;-81
2024/03/11 12:33:28;;;;;;;5.40;5.30;;;14.20;9.10;;;;;;5091863;28;20205;-80
2024/03/11 12:35:55;;;;;;;5.83;5.53;;;14.30;9.20;;;;;;5060063;28;20426;-80
2024/03/11 12:38:25;;;;;;;5.77;5.57;;;14.30;8.70;;;;;;5044901;28;20419;-79
2024/03/11 12:40:50;;;;;;;5.77;5.57;;;14.30;9.20;;;;;;5066028;28;20435;-79
2024/03/11 12:43:19;;;;;;;5.43;5.23;;;14.30;8.60;;;;;;5042227;28;20462;-80
2024/03/11 12:45:51;;;;;;;6.00;5.80;;;14.30;8.30;;;;;;5084261;28;20222;-81
2024/03/11 12:48:17;;;;;;;5.37;5.17;;;14.40;8.70;;;;;;5074288;28;20458;-79
2024/03/11 12:50:46;;;;;;;6.27;6.07;;;14.40;8.70;;;;;;5076187;28;20467;-79
2024/03/11 12:53:16;;;;;;;5.47;5.37;;;14.50;7.50;;;;;;5063975;28;20459;-80
2024/03/11 12:55:43;;;;;;;6.03;5.93;;;14.40;7.40;;;;;;5091465;28;20426;-80
2024/03/11 12:58:15;;;;;;;5.10;4.90;;;14.50;7.10;;;;;;5048591;28;20438;-81
2024/03/11 13:01:02;;;;;;;6.30;6.10;;;14.60;7.80;;;;;;5053265;28;20426;-80
2024/03/11 13:03:27;;;;;;;6.50;6.20;;;14.60;7.20;;;;;;5048819;28;20475;-81
2024/03/11 13:06:01;;;;;;;6.40;6.20;;;14.60;7.80;;;;;;5041117;28;20929;-78
2024/03/11 13:08:33;;;;;;;5.70;5.50;;;14.60;7.50;;;;;;5066021;28;20223;-80
2024/03/11 13:11:03;;;;;;;5.70;5.50;;;14.70;7.80;;;;;;5049269;28;20471;-80
2024/03/11 13:13:29;;;;;;;5.70;5.60;;;14.70;8.00;;;;;;5057467;28;20810;-80
2024/03/11 13:15:55;;;;;;;6.67;6.37;;;14.60;7.80;;;;;;5057773;28;20427;-79
2024/03/11 13:18:21;;;;;;;5.90;5.80;;;14.60;6.80;;;;;;5054395;28;20435;-80
2024/03/11 13:20:50;;;;;;;5.47;5.37;;;14.50;6.90;;;;;;5053330;28;20215;-80
2024/03/11 13:23:18;;;;;;;6.00;5.83;;;14.50;7.60;;;;;;5073166;28;20512;-79
2024/03/11 13:25:44;;;;;;;5.37;4.97;;;14.50;7.50;;;;;;5093046;28;20526;-80
2024/03/11 13:28:12;;;;;;;6.60;6.40;;;14.40;7.50;;;;;;5083351;28;20876;-79
2024/03/11 13:30:43;;;;;;;5.77;5.57;;;14.40;7.40;;;;;;5083120;28;20283;-79
2024/03/11 13:33:08;;;;;;;6.10;5.90;;;14.50;8.50;;;;;;5080046;28;20490;-79
2024/03/11 13:35:35;;;;;;;5.70;5.50;;;14.60;8.20;;;;;;5043139;28;20427;-80
2024/03/11 13:38:04;;;;;;;5.77;5.50;;;14.50;9.30;;;;;;5045269;28;20546;-79
2024/03/11 13:40:34;;;;;;;6.17;5.97;;;14.60;8.60;;;;;;5047980;28;20438;-80
2024/03/11 13:43:04;;;;;;;5.87;5.67;;;14.60;8.10;;;;;;5080035;28;20466;-80
2024/03/11 13:45:31;;;;;;;6.20;6.00;;;14.60;9.00;;;;;;5041621;28;20794;-79
2024/03/11 13:47:58;;;;;;;6.30;6.10;;;14.60;8.10;;;;;;5089027;28;20438;-79
2024/03/11 13:50:26;;;;;;;6.17;5.97;;;14.60;7.70;;;;;;5044733;28;20474;-79
2024/03/11 13:52:52;;;;;;;6.50;6.30;;;14.60;9.40;;;;;;5051837;28;20478;-80
2024/03/11 13:55:23;;;;;;;5.70;5.50;;;14.60;9.40;;;;;;5057096;28;20406;-80
2024/03/11 13:57:49;;;;;;;5.70;5.50;;;14.50;9.00;;;;;;5050785;28;20227;-80
2024/03/11 14:00:18;;;;;;;5.23;5.03;;;14.50;9.50;;;;;;5041063;28;20484;-80
2024/03/11 14:02:50;;;;;;;5.87;5.67;;;14.50;8.80;;;;;;5054168;28;20590;-80
2024/03/11 14:05:26;;;;;;;7.10;6.70;;;14.50;9.30;;;;;;5055745;28;20549;-79
2024/03/11 14:07:51;;;;;;;6.63;6.40;;;14.50;9.90;;;;;;5039331;28;20438;-79
2024/03/11 14:10:21;;;;;;;6.10;5.90;;;14.50;8.70;;;;;;5079950;28;21093;-79
2024/03/11 14:12:47;;;;;;;7.27;6.93;;;14.50;6.80;;;;;;5080694;28;20236;-79
2024/03/11 14:15:14;;;;;;;5.87;5.67;;;14.20;6.90;;;;;;5071038;28;20422;-79
2024/03/11 14:17:44;;;;;;;5.70;5.60;;;14.20;7.90;;;;;;5084871;28;20177;-80
2024/03/11 14:20:20;;;;;;;6.13;5.93;;;14.20;9.10;;;;;;5073344;28;20846;-79
2024/03/11 14:22:50;;;;;;;6.60;6.40;;;14.20;8.50;;;;;;5082602;28;20473;-80
2024/03/11 14:25:16;;;;;;;6.60;6.40;;;14.30;8.20;;;;;;5049608;28;20936;-80
2024/03/11 14:27:46;;;;;;;6.70;6.50;;;14.40;8.10;;;;;;5046318;28;20979;-79
2024/03/11 14:30:14;;;;;;;6.77;6.57;;;14.40;8.60;;;;;;5057792;28;20464;-78
2024/03/11 14:32:47;;;;;;;6.40;6.20;;;14.40;8.40;;;;;;5068699;28;20465;-79
2024/03/11 14:35:15;;;;;;;6.33;6.13;;;14.50;8.40;;;;;;5091860;28;20998;-78
2024/03/11 14:37:55;;;;;;;6.10;5.90;;;14.40;8.70;;;;;;5050935;28;20793;-78
2024/03/11 14:40:31;;;;;;;6.40;6.20;;;14.40;8.20;;;;;;5074957;28;20432;-78
2024/03/11 14:43:05;;;;;;;5.70;5.50;;;14.40;8.70;;;;;;5056085;28;20871;-79
2024/03/11 14:45:48;;;;;;;5.37;5.20;;;14.40;8.30;;;;;;5053676;28;20927;-78
2024/03/11 14:48:17;;;;;;;6.43;6.23;;;14.40;7.90;;;;;;5073571;28;20426;-79
2024/03/11 14:51:25;;;;;;;6.60;6.40;;;14.40;7.90;;;;;;5104644;28;20653;-79
2024/03/11 14:54:42;;;;;;;5.77;5.63;;;14.40;7.70;;;;;;5088957;28;20462;-79
2024/03/11 14:57:24;;;;;;;5.70;5.50;;;14.40;7.90;;;;;;5065929;28;20422;-78
2024/03/11 14:59:55;;;;;;;5.67;5.47;;;14.50;8.10;;;;;;5103812;28;20442;-78
2024/03/11 15:02:36;;;;;;;5.33;5.13;;;14.50;8.00;;;;;;5051860;28;20450;-79
2024/03/11 15:05:02;;;;;;;5.90;5.40;;;14.50;7.80;;;;;;5051727;28;20438;-79
2024/03/11 15:07:29;;;;;;;5.20;5.10;;;14.50;8.20;;;;;;5088972;28;20438;-78
2024/03/11 15:10:02;;;;;;;6.13;5.93;;;14.50;8.00;;;;;;5055451;28;20204;-79